createdAt,value
2022-10-01T00:01:19.437Z,100569.20
2022-10-01T00:03:47.450Z,100571.00
2022-10-01T00:06:18.299Z,100567.20
2022-10-01T00:08:48.149Z,100565.00
2022-10-01T00:11:25.776Z,100566.80
2022-10-01T00:13:54.349Z,100564.00
2022-10-01T00:16:25.161Z,100554.40
2022-10-01T00:18:55.463Z,100560.00
2022-10-01T00:21:26.814Z,100557.40
2022-10-01T00:24:06.435Z,100551.20
2022-10-01T00:26:37.169Z,100554.20
2022-10-01T00:29:07.570Z,100553.00
2022-10-01T00:31:34.181Z,100554.20
2022-10-01T00:34:02.770Z,100550.40
2022-10-01T00:36:31.197Z,100550.80
2022-10-01T00:38:59.915Z,100548.60
2022-10-01T00:41:29.815Z,100544.20
2022-10-01T00:44:02.746Z,100540.40
2022-10-01T00:46:40.000Z,100542.40
2022-10-01T00:49:19.375Z,100546.60
2022-10-01T00:52:00.050Z,100544.00
2022-10-01T00:54:36.528Z,100535.40
2022-10-01T00:57:05.721Z,100540.60
2022-10-01T00:59:34.944Z,100538.40
2022-10-01T01:02:01.533Z,100538.20
2022-10-01T01:04:28.039Z,100537.00
2022-10-01T01:06:59.036Z,100533.40
2022-10-01T01:09:37.341Z,100535.40
2022-10-01T01:12:47.733Z,100535.80
2022-10-01T01:15:19.820Z,100538.80
2022-10-01T01:18:05.079Z,100535.00
2022-10-01T01:21:06.347Z,100536.60
2022-10-01T01:24:06.986Z,100532.80
2022-10-01T01:27:32.305Z,100533.20
2022-10-01T01:30:11.022Z,100533.60
2022-10-01T01:33:02.619Z,100530.80
2022-10-01T01:35:37.040Z,100521.80
2022-10-01T01:38:13.956Z,100523.20
2022-10-01T01:40:45.254Z,100523.80
2022-10-01T01:43:19.073Z,100524.60
2022-10-01T01:45:51.005Z,100528.00
2022-10-01T01:48:17.397Z,100525.00
2022-10-01T01:50:51.923Z,100522.40
2022-10-01T01:53:19.696Z,100520.20
2022-10-01T01:55:48.782Z,100517.40
2022-10-01T01:58:18.244Z,100521.00
2022-10-01T02:00:51.890Z,100516.80
2022-10-01T02:03:25.921Z,100515.20
2022-10-01T02:06:43.709Z,100516.00
2022-10-01T02:09:27.797Z,100517.40
2022-10-01T02:12:22.127Z,100513.80
2022-10-01T02:15:00.475Z,100505.00
2022-10-01T02:17:38.640Z,100502.40
2022-10-01T02:20:15.161Z,100507.60
2022-10-01T02:22:56.942Z,100509.20
2022-10-01T02:25:30.519Z,100508.00
2022-10-01T02:28:12.733Z,100508.40
2022-10-01T02:30:44.441Z,100502.40
2022-10-01T02:33:15.355Z,100497.20
2022-10-01T02:35:46.469Z,100503.60
2022-10-01T02:38:16.289Z,100495.60
2022-10-01T02:40:46.131Z,100495.60
2022-10-01T02:43:22.275Z,100494.80
2022-10-01T02:45:57.990Z,100492.40
2022-10-01T02:48:26.707Z,100488.60
2022-10-01T02:51:15.223Z,100491.60
2022-10-01T02:53:48.683Z,100491.60
2022-10-01T02:56:36.054Z,100490.40
2022-10-01T02:59:06.939Z,100493.00
2022-10-01T03:01:37.344Z,100490.00
2022-10-01T03:04:04.052Z,100484.40
2022-10-01T03:06:30.365Z,100482.80
2022-10-01T03:08:56.974Z,100477.60
2022-10-01T03:11:23.248Z,100475.80
2022-10-01T03:13:49.641Z,100472.60
2022-10-01T03:16:16.141Z,100470.40
2022-10-01T03:18:42.623Z,100469.80
2022-10-01T03:21:08.983Z,100469.60
2022-10-01T03:23:35.343Z,100466.00
2022-10-01T03:26:01.757Z,100467.80
2022-10-01T03:28:28.189Z,100464.40
2022-10-01T03:31:05.776Z,100462.80
2022-10-01T03:33:32.148Z,100465.60
2022-10-01T03:35:58.474Z,100469.20
2022-10-01T03:38:25.030Z,100464.40
2022-10-01T03:40:51.363Z,100458.60
2022-10-01T03:43:17.673Z,100461.60
2022-10-01T03:45:44.145Z,100460.80
2022-10-01T03:48:10.546Z,100458.40
2022-10-01T03:50:36.893Z,100464.00
2022-10-01T03:53:03.297Z,100458.00
2022-10-01T03:55:29.696Z,100454.00
2022-10-01T03:57:56.712Z,100450.00
2022-10-01T04:00:23.136Z,100450.00
2022-10-01T04:02:49.520Z,100449.20
2022-10-01T04:05:16.612Z,100447.20
2022-10-01T04:07:43.032Z,100449.40
2022-10-01T04:10:09.528Z,100446.60
2022-10-01T04:12:36.283Z,100446.20
2022-10-01T04:15:02.917Z,100445.40
2022-10-01T04:17:29.295Z,100446.20
2022-10-01T04:19:57.255Z,100439.00
2022-10-01T04:22:23.572Z,100445.00
2022-10-01T04:24:50.064Z,100446.60
2022-10-01T04:27:16.423Z,100444.80
2022-10-01T04:29:42.818Z,100441.20
2022-10-01T04:32:09.183Z,100442.00
2022-10-01T04:34:53.700Z,100447.20
2022-10-01T04:37:21.517Z,100445.40
2022-10-01T04:39:48.372Z,100448.60
2022-10-01T04:42:15.524Z,100449.00
2022-10-01T04:44:41.826Z,100450.20
2022-10-01T04:47:08.627Z,100453.20
2022-10-01T04:49:36.050Z,100450.80
2022-10-01T04:52:03.782Z,100445.20
2022-10-01T04:54:30.164Z,100444.20
2022-10-01T04:56:57.851Z,100444.40
2022-10-01T04:59:25.214Z,100438.80
2022-10-01T05:01:51.856Z,100445.00
2022-10-01T05:04:18.251Z,100447.00
2022-10-01T05:06:44.592Z,100444.40
2022-10-01T05:09:10.946Z,100448.40
2022-10-01T05:11:38.565Z,100449.80
2022-10-01T05:14:05.359Z,100452.00
2022-10-01T05:16:31.866Z,100447.00
2022-10-01T05:18:58.480Z,100452.80
2022-10-01T05:21:24.894Z,100453.60
2022-10-01T05:23:51.867Z,100452.40
2022-10-01T05:26:18.282Z,100452.00
2022-10-01T05:28:44.718Z,100447.80
2022-10-01T05:31:12.817Z,100446.20
2022-10-01T05:33:40.083Z,100442.40
2022-10-01T05:36:06.607Z,100442.60
2022-10-01T05:38:36.731Z,100438.80
2022-10-01T05:41:04.494Z,100434.00
2022-10-01T05:43:30.889Z,100431.80
2022-10-01T05:46:02.899Z,100431.40
2022-10-01T05:48:33.590Z,100433.00
2022-10-01T05:50:59.902Z,100435.60
2022-10-01T05:53:26.388Z,100435.80
2022-10-01T05:55:53.060Z,100433.00
2022-10-01T05:58:19.455Z,100432.40
2022-10-01T06:00:45.850Z,100426.00
2022-10-01T06:03:17.826Z,100426.00
2022-10-01T06:05:44.337Z,100425.60
2022-10-01T06:08:10.856Z,100427.20
2022-10-01T06:10:38.135Z,100419.20
2022-10-01T06:13:05.325Z,100417.20
2022-10-01T06:15:37.610Z,100410.20
2022-10-01T06:18:06.758Z,100406.40
2022-10-01T06:20:34.123Z,100408.60
2022-10-01T06:23:00.572Z,100405.60
2022-10-01T06:25:31.127Z,100400.40
2022-10-01T06:27:59.275Z,100407.00
2022-10-01T06:30:28.927Z,100405.40
2022-10-01T06:33:08.507Z,100395.60
2022-10-01T06:35:40.161Z,100392.60
2022-10-01T06:38:07.552Z,100391.20
2022-10-01T06:40:33.898Z,100384.00
2022-10-01T06:43:00.299Z,100387.60
2022-10-01T06:45:29.235Z,100381.00
2022-10-01T06:48:03.691Z,100383.00
2022-10-01T06:50:32.110Z,100377.60
2022-10-01T06:53:00.003Z,100380.80
2022-10-01T06:55:30.890Z,100373.40
2022-10-01T06:58:00.885Z,100373.20
2022-10-01T07:00:31.984Z,100368.00
2022-10-01T07:03:00.134Z,100363.80
2022-10-01T07:05:27.594Z,100357.00
2022-10-01T07:07:54.069Z,100357.60
2022-10-01T07:10:22.751Z,100354.00
2022-10-01T07:12:50.844Z,100356.20
2022-10-01T07:15:23.087Z,100344.80
2022-10-01T07:17:52.287Z,100351.60
2022-10-01T07:20:20.758Z,100337.60
2022-10-01T07:22:48.422Z,100340.80
2022-10-01T07:25:15.559Z,100339.40
2022-10-01T07:27:42.053Z,100334.80
2022-10-01T07:30:09.239Z,100333.20
2022-10-01T07:32:35.665Z,100333.20
2022-10-01T07:35:02.118Z,100324.60
2022-10-01T07:37:28.458Z,100322.60
2022-10-01T07:39:54.797Z,100323.20
2022-10-01T07:42:21.209Z,100314.60
2022-10-01T07:44:47.667Z,100310.60
2022-10-01T07:47:14.824Z,100301.00
2022-10-01T07:49:41.156Z,100295.40
2022-10-01T07:52:12.355Z,100294.40
2022-10-01T07:54:40.358Z,100287.60
2022-10-01T07:57:07.505Z,100287.20
2022-10-01T07:59:33.836Z,100279.60
2022-10-01T08:02:00.416Z,100276.80
2022-10-01T08:04:45.764Z,100278.40
2022-10-01T08:07:12.171Z,100276.60
2022-10-01T08:09:39.310Z,100271.60
2022-10-01T08:12:05.742Z,100273.80
2022-10-01T08:14:32.097Z,100266.20
2022-10-01T08:16:58.519Z,100265.40
2022-10-01T08:19:24.985Z,100269.20
2022-10-01T08:21:52.205Z,100259.20
2022-10-01T08:24:19.557Z,100256.00
2022-10-01T08:26:55.512Z,100254.20
2022-10-01T08:29:22.423Z,100252.60
2022-10-01T08:31:49.634Z,100248.60
2022-10-01T08:34:16.607Z,100247.40
2022-10-01T08:36:43.107Z,100246.40
2022-10-01T08:39:13.034Z,100241.20
2022-10-01T08:42:23.580Z,100247.20
2022-10-01T08:44:52.249Z,100241.60
2022-10-01T08:47:33.344Z,100229.40
2022-10-01T08:50:25.739Z,100232.40
2022-10-01T08:53:06.894Z,100235.00
2022-10-01T08:55:36.800Z,100235.20
2022-10-01T08:58:11.664Z,100224.20
2022-10-01T09:00:45.958Z,100220.00
2022-10-01T09:03:15.013Z,100221.60
2022-10-01T09:06:00.799Z,100208.80
2022-10-01T09:09:14.883Z,100209.60
2022-10-01T09:12:03.742Z,100204.00
2022-10-01T09:14:55.218Z,100198.60
2022-10-01T09:17:54.358Z,100190.40
2022-10-01T09:20:28.550Z,100190.80
2022-10-01T09:23:17.995Z,100193.80
2022-10-01T09:25:51.976Z,100191.40
2022-10-01T09:28:51.701Z,100185.00
2022-10-01T09:31:40.861Z,100180.00
2022-10-01T09:34:15.101Z,100170.40
2022-10-01T09:37:21.174Z,100174.80
2022-10-01T09:40:05.882Z,100164.40
2022-10-01T09:42:32.340Z,100164.20
2022-10-01T09:44:59.218Z,100156.40
2022-10-01T09:47:26.254Z,100157.40
2022-10-01T09:49:52.746Z,100155.20
2022-10-01T09:52:32.982Z,100151.80
2022-10-01T09:55:06.681Z,100151.20
2022-10-01T09:57:42.588Z,100151.80
2022-10-01T10:00:21.425Z,100153.80
2022-10-01T10:02:51.137Z,100150.20
2022-10-01T10:05:39.328Z,100148.80
2022-10-01T10:08:19.573Z,100146.40
2022-10-01T10:10:59.836Z,100134.00
2022-10-01T10:13:34.668Z,100136.60
2022-10-01T10:16:26.911Z,100132.60
2022-10-01T10:19:00.113Z,100131.80
2022-10-01T10:21:34.414Z,100128.40
2022-10-01T10:24:05.906Z,100127.20
2022-10-01T10:26:38.241Z,100126.40
2022-10-01T10:29:13.439Z,100122.40
2022-10-01T10:31:44.371Z,100124.40
2022-10-01T10:34:32.309Z,100125.20
2022-10-01T10:37:06.941Z,100116.40
2022-10-01T10:39:40.627Z,100110.60
2022-10-01T10:42:07.962Z,100110.60
2022-10-01T10:44:39.223Z,100104.20
2022-10-01T10:47:18.722Z,100096.60
2022-10-01T10:49:49.046Z,100092.60
2022-10-01T10:52:37.089Z,100091.80
2022-10-01T10:55:32.407Z,100085.60
2022-10-01T10:58:14.614Z,100087.40
2022-10-01T11:00:49.958Z,100083.60
2022-10-01T11:03:29.569Z,100079.20
2022-10-01T11:06:10.727Z,100080.80
2022-10-01T11:08:38.942Z,100072.80
2022-10-01T11:11:52.895Z,100068.00
2022-10-01T11:15:10.490Z,100063.20
2022-10-01T11:18:11.667Z,100062.80
2022-10-01T11:20:51.359Z,100050.80
2022-10-01T11:23:47.166Z,100053.80
2022-10-01T11:26:43.437Z,100046.20
2022-10-01T11:29:29.281Z,100040.20
2022-10-01T11:32:22.283Z,100040.60
2022-10-01T11:35:21.517Z,100034.60
2022-10-01T11:37:52.095Z,100030.00
2022-10-01T11:40:43.320Z,100032.00
2022-10-01T11:43:27.736Z,100027.80
2022-10-01T11:46:08.691Z,100021.40
2022-10-01T11:48:51.393Z,100021.60
2022-10-01T11:51:33.813Z,100014.00
2022-10-01T11:54:11.903Z,100009.60
2022-10-01T11:57:07.098Z,100010.20
2022-10-01T11:59:52.020Z,100012.20
2022-10-01T12:02:49.574Z,100013.80
2022-10-01T12:05:31.497Z,99998.60
2022-10-01T12:08:20.212Z,100004.60
2022-10-01T12:11:19.836Z,100006.80
2022-10-01T12:14:23.154Z,100001.60
2022-10-01T12:17:03.795Z,100000.80
2022-10-01T12:19:36.449Z,99992.60
2022-10-01T12:22:24.303Z,99987.40
2022-10-01T12:24:53.317Z,99990.80
2022-10-01T12:27:29.050Z,99985.40
2022-10-01T12:30:07.890Z,99978.00
2022-10-01T12:33:01.574Z,99980.00
2022-10-01T12:36:25.050Z,99979.00
2022-10-01T12:39:45.004Z,99970.40
2022-10-01T12:43:05.594Z,99963.20
2022-10-01T12:46:24.754Z,99958.00
2022-10-01T12:49:01.452Z,99950.80
2022-10-01T12:51:45.122Z,99940.60
2022-10-01T12:54:47.600Z,99943.40
2022-10-01T12:57:52.541Z,99949.60
2022-10-01T13:00:24.540Z,99943.60
2022-10-01T13:03:22.223Z,99934.60
2022-10-01T13:06:35.758Z,99930.60
2022-10-01T13:09:28.983Z,99935.00
2022-10-01T13:12:25.903Z,99923.20
2022-10-01T13:14:54.597Z,99922.40
2022-10-01T13:17:38.009Z,99921.20
2022-10-01T13:20:25.137Z,99921.00
2022-10-01T13:23:24.166Z,99916.60
2022-10-01T13:26:39.873Z,99921.20
2022-10-01T13:30:02.581Z,99923.40
2022-10-01T13:32:36.986Z,99918.00
2022-10-01T13:35:52.245Z,99915.00
2022-10-01T13:38:38.370Z,99904.60
2022-10-01T13:41:18.300Z,99903.20
2022-10-01T13:44:01.859Z,99899.80
2022-10-01T13:46:34.966Z,99902.60
2022-10-01T13:49:24.812Z,99899.80
2022-10-01T13:51:52.993Z,99893.60
2022-10-01T13:54:36.911Z,99893.00
2022-10-01T13:57:38.494Z,99899.20
2022-10-01T14:00:10.879Z,99898.80
2022-10-01T14:02:44.903Z,99894.80
2022-10-01T14:05:17.331Z,99899.60
2022-10-01T14:07:49.755Z,99893.40
2022-10-01T14:10:17.232Z,99892.80
2022-10-01T14:13:21.797Z,99891.60
2022-10-01T14:15:59.246Z,99887.60
2022-10-01T14:18:42.348Z,99888.40
2022-10-01T14:22:09.826Z,99886.20
2022-10-01T14:25:16.544Z,99880.60
2022-10-01T14:28:13.887Z,99879.20
2022-10-01T14:31:15.161Z,99880.20
2022-10-01T14:34:11.929Z,99874.20
2022-10-01T14:36:49.011Z,99870.80
2022-10-01T14:39:27.337Z,99869.00
2022-10-01T14:41:56.550Z,99862.80
2022-10-01T14:44:45.623Z,99866.40
2022-10-01T14:47:23.607Z,99868.00
2022-10-01T14:49:51.617Z,99863.80
2022-10-01T14:52:48.816Z,99862.80
2022-10-01T14:55:21.515Z,99867.60
2022-10-01T14:57:53.768Z,99859.40
2022-10-01T15:00:27.932Z,99860.00
2022-10-01T15:03:14.871Z,99858.40
2022-10-01T15:05:43.191Z,99853.40
2022-10-01T15:08:44.460Z,99859.20
2022-10-01T15:11:33.739Z,99844.60
2022-10-01T15:14:10.058Z,99847.00
2022-10-01T15:16:37.481Z,99852.80
2022-10-01T15:19:15.235Z,99851.20
2022-10-01T15:21:50.938Z,99848.00
2022-10-01T15:24:40.395Z,99846.40
2022-10-01T15:27:11.689Z,99842.20
2022-10-01T15:29:43.016Z,99840.20
2022-10-01T15:32:16.855Z,99837.80
2022-10-01T15:34:52.856Z,99834.40
2022-10-01T15:37:28.041Z,99829.80
2022-10-01T15:39:55.827Z,99829.40
2022-10-01T15:42:30.271Z,99830.00
2022-10-01T15:45:22.799Z,99827.80
2022-10-01T15:47:56.326Z,99824.20
2022-10-01T15:50:31.896Z,99817.40
2022-10-01T15:53:06.709Z,99818.80
2022-10-01T15:55:41.633Z,99814.80
2022-10-01T15:58:16.621Z,99807.60
2022-10-01T16:00:47.052Z,99810.60
2022-10-01T16:03:31.941Z,99807.00
2022-10-01T16:06:01.609Z,99808.20
2022-10-01T16:08:33.995Z,99806.20
2022-10-01T16:11:12.422Z,99807.60
2022-10-01T16:13:46.491Z,99803.80
2022-10-01T16:16:13.076Z,99798.60
2022-10-01T16:18:40.712Z,99801.40
2022-10-01T16:21:10.580Z,99793.80
2022-10-01T16:23:48.756Z,99797.40
2022-10-01T16:26:30.846Z,99792.40
2022-10-01T16:29:19.808Z,99793.40
2022-10-01T16:31:47.020Z,99789.40
2022-10-01T16:34:18.089Z,99787.20
2022-10-01T16:36:45.938Z,99785.40
2022-10-01T16:39:14.797Z,99778.80
2022-10-01T16:41:53.445Z,99777.00
2022-10-01T16:44:28.507Z,99774.20
2022-10-01T16:46:57.666Z,99774.60
2022-10-01T16:49:25.711Z,99768.80
2022-10-01T16:51:53.532Z,99759.40
2022-10-01T16:54:24.363Z,99744.60
2022-10-01T16:56:54.518Z,99750.80
2022-10-01T16:59:23.119Z,99756.60
2022-10-01T17:01:54.201Z,99756.00
2022-10-01T17:04:22.942Z,99750.00
2022-10-01T17:06:49.919Z,99751.80
2022-10-01T17:09:18.795Z,99747.00
2022-10-01T17:11:47.062Z,99745.20
2022-10-01T17:14:20.647Z,99744.80
2022-10-01T17:16:50.884Z,99741.60
2022-10-01T17:19:21.986Z,99743.60
2022-10-01T17:21:50.929Z,99747.60
2022-10-01T17:24:19.821Z,99751.00
2022-10-01T17:26:49.412Z,99752.60
2022-10-01T17:29:20.239Z,99744.00
2022-10-01T17:31:53.952Z,99744.80
2022-10-01T17:34:22.863Z,99751.80
2022-10-01T17:36:50.364Z,99744.60
2022-10-01T17:39:19.463Z,99747.00
2022-10-01T17:41:47.165Z,99748.60
2022-10-01T17:44:15.442Z,99748.80
2022-10-01T17:46:44.779Z,99744.00
2022-10-01T17:49:14.417Z,99743.80
2022-10-01T17:51:42.952Z,99736.40
2022-10-01T17:54:09.898Z,99736.00
2022-10-01T17:56:38.635Z,99731.80
2022-10-01T17:59:06.982Z,99738.00
2022-10-01T18:01:36.290Z,99738.80
2022-10-01T18:04:05.570Z,99731.00
2022-10-01T18:06:33.577Z,99733.80
2022-10-01T18:09:02.509Z,99738.60
2022-10-01T18:11:29.595Z,99735.80
2022-10-01T18:13:57.090Z,99732.60
2022-10-01T18:16:25.453Z,99734.60
2022-10-01T18:21:47.899Z,99732.80
2022-10-01T18:24:16.011Z,99724.20
2022-10-01T18:26:44.492Z,99725.80
2022-10-01T18:29:22.823Z,99726.60
2022-10-01T18:32:10.927Z,99729.00
2022-10-01T18:34:54.366Z,99727.00
2022-10-01T18:37:37.665Z,99727.60
2022-10-01T18:40:20.431Z,99736.80
2022-10-01T18:43:15.741Z,99733.20
2022-10-01T18:46:05.244Z,99723.20
2022-10-01T18:48:48.074Z,99719.60
2022-10-01T18:52:04.590Z,99718.80
2022-10-01T18:55:21.368Z,99715.60
2022-10-01T18:58:38.732Z,99712.80
2022-10-01T19:02:00.830Z,99712.40
2022-10-01T19:04:46.077Z,99711.00
2022-10-01T19:07:42.550Z,99704.40
2022-10-01T19:10:37.320Z,99699.40
2022-10-01T19:13:35.395Z,99697.00
2022-10-01T19:16:50.796Z,99693.80
2022-10-01T19:19:56.931Z,99694.60
2022-10-01T19:22:43.888Z,99685.80
2022-10-01T19:25:27.538Z,99689.20
2022-10-01T19:28:30.130Z,99687.80
2022-10-01T19:31:09.784Z,99688.60
2022-10-01T19:33:48.343Z,99696.20
2022-10-01T19:36:30.406Z,99692.20
2022-10-01T19:39:08.606Z,99698.00
2022-10-01T19:42:05.199Z,99699.00
2022-10-01T19:44:44.876Z,99703.00
2022-10-01T19:47:31.658Z,99699.00
2022-10-01T19:50:11.907Z,99696.00
2022-10-01T19:52:40.839Z,99697.20
2022-10-01T19:55:19.255Z,99697.40
2022-10-01T19:57:46.772Z,99700.60
2022-10-01T20:00:19.044Z,99694.80
2022-10-01T20:03:09.556Z,99694.20
2022-10-01T20:06:05.446Z,99709.20
2022-10-01T20:08:47.177Z,99708.40
2022-10-01T20:11:44.112Z,99709.00
2022-10-01T20:14:57.401Z,99710.60
2022-10-01T20:18:12.732Z,99707.20
2022-10-01T20:21:20.888Z,99710.40
2022-10-01T20:24:17.817Z,99714.00
2022-10-01T20:27:49.732Z,99714.20
2022-10-01T20:30:20.584Z,99715.20
2022-10-01T20:33:19.533Z,99714.60
2022-10-01T20:36:43.463Z,99713.00
2022-10-01T20:39:25.357Z,99713.00
2022-10-01T20:41:54.169Z,99717.20
2022-10-01T20:44:28.591Z,99718.40
2022-10-01T20:47:23.212Z,99713.40
2022-10-01T20:50:24.972Z,99717.20
2022-10-01T20:53:08.483Z,99714.20
2022-10-01T20:55:45.362Z,99710.40
2022-10-01T20:58:23.092Z,99705.80
2022-10-01T21:01:00.561Z,99706.80
2022-10-01T21:03:42.204Z,99702.00
2022-10-01T21:06:25.962Z,99705.20
2022-10-01T21:08:58.189Z,99704.60
2022-10-01T21:11:27.549Z,99702.40
2022-10-01T21:14:14.577Z,99707.00
2022-10-01T21:17:21.214Z,99700.20
2022-10-01T21:20:05.415Z,99704.00
2022-10-01T21:22:45.837Z,99702.00
2022-10-01T21:25:42.846Z,99705.00
2022-10-01T21:29:00.567Z,99711.60
2022-10-01T21:32:17.908Z,99710.60
2022-10-01T21:35:13.252Z,99710.40
2022-10-01T21:37:48.513Z,99708.00
2022-10-01T21:40:54.252Z,99708.00
2022-10-01T21:43:35.772Z,99713.40
2022-10-01T21:46:31.795Z,99712.00
2022-10-01T21:49:10.437Z,99712.80
2022-10-01T21:52:26.395Z,99715.00
2022-10-01T21:55:22.725Z,99715.80
2022-10-01T21:58:20.331Z,99709.00
2022-10-01T22:01:21.142Z,99715.20
2022-10-01T22:03:56.802Z,99710.60
2022-10-01T22:06:44.646Z,99712.80
2022-10-01T22:09:37.481Z,99712.20
2022-10-01T22:12:06.905Z,99718.60
2022-10-01T22:14:33.729Z,99718.00
2022-10-01T22:17:17.166Z,99713.00
2022-10-01T22:19:53.192Z,99721.00
2022-10-01T22:22:32.617Z,99720.20
2022-10-01T22:25:02.158Z,99722.40
2022-10-01T22:27:48.146Z,99719.00
2022-10-01T22:30:22.101Z,99715.80
2022-10-01T22:32:59.046Z,99716.40
2022-10-01T22:35:54.477Z,99718.60
2022-10-01T22:38:45.116Z,99718.80
2022-10-01T22:41:55.408Z,99723.20
2022-10-01T22:44:22.900Z,99723.40
2022-10-01T22:47:05.380Z,99722.20
2022-10-01T22:49:51.913Z,99724.80
2022-10-01T22:52:32.727Z,99725.00
2022-10-01T22:55:27.033Z,99724.20
2022-10-01T22:58:18.313Z,99724.80
2022-10-01T23:01:11.592Z,99722.20
2022-10-01T23:03:59.139Z,99718.00
2022-10-01T23:07:10.384Z,99721.20
2022-10-01T23:10:11.420Z,99723.20
2022-10-01T23:13:18.671Z,99719.40
2022-10-01T23:16:13.142Z,99720.60
2022-10-01T23:18:48.605Z,99721.40
2022-10-01T23:21:49.849Z,99718.80
2022-10-01T23:24:48.387Z,99717.00
2022-10-01T23:28:00.001Z,99714.60
2022-10-01T23:30:40.690Z,99727.80
2022-10-01T23:33:44.611Z,99717.60
2022-10-01T23:36:42.376Z,99717.80
2022-10-01T23:39:45.523Z,99717.20
2022-10-01T23:42:36.848Z,99724.20
2022-10-01T23:45:24.374Z,99729.60
2022-10-01T23:48:17.522Z,99726.60
2022-10-01T23:51:11.335Z,99721.60
2022-10-01T23:53:56.723Z,99726.40
2022-10-01T23:56:50.410Z,99722.00
2022-10-01T23:59:58.532Z,99725.60
